createdAt,value
2022-09-18T00:02:02.948Z,99992.25
2022-09-18T00:04:50.015Z,99998.28
2022-09-18T00:07:36.712Z,99990.25
2022-09-18T00:10:23.428Z,99990.25
2022-09-18T00:13:10.707Z,99983.69
2022-09-18T00:15:59.423Z,99984.91
2022-09-18T00:18:46.326Z,99986.84
2022-09-18T00:21:35.859Z,99978.47
2022-09-18T00:24:24.328Z,99984.56
2022-09-18T00:27:11.096Z,99975.47
2022-09-18T00:29:57.778Z,99986.84
2022-09-18T00:32:45.986Z,99990.44
2022-09-18T00:35:32.873Z,99988.94
2022-09-18T00:38:19.412Z,99989.28
2022-09-18T00:41:09.492Z,99996.66
2022-09-18T00:43:58.544Z,99994.44
2022-09-18T00:46:46.608Z,99989.44
2022-09-18T00:49:35.602Z,99999.16
2022-09-18T00:52:25.045Z,99996.88
2022-09-18T00:55:12.914Z,99995.44
2022-09-18T00:58:02.389Z,99991.72
2022-09-18T01:00:49.013Z,99994.16
2022-09-18T01:03:35.815Z,99996.94
2022-09-18T01:06:32.121Z,99992.28
2022-09-18T01:09:29.632Z,99997.66
2022-09-18T01:12:26.130Z,100000.25
2022-09-18T01:15:20.022Z,100001.38
2022-09-18T01:18:12.953Z,100005.88
2022-09-18T01:21:11.037Z,100004.31
2022-09-18T01:24:35.135Z,100002.25
2022-09-18T01:27:31.731Z,100002.72
2022-09-18T01:30:20.009Z,100012.47
2022-09-18T01:33:11.354Z,100006.31
2022-09-18T01:36:03.632Z,100009.47
2022-09-18T01:38:54.750Z,100006.31
2022-09-18T01:41:42.545Z,100013.44
2022-09-18T01:44:33.023Z,100017.31
2022-09-18T01:47:26.248Z,99978.38
2022-09-18T01:50:15.405Z,100012.94
2022-09-18T01:53:07.869Z,99985.75
2022-09-18T01:56:00.794Z,100021.03
2022-09-18T01:58:50.031Z,100014.00
2022-09-18T02:01:40.449Z,100015.91
2022-09-18T02:04:32.225Z,100020.34
2022-09-18T02:07:25.361Z,100015.66
2022-09-18T02:10:12.036Z,100010.56
2022-09-18T02:13:01.264Z,100022.88
2022-09-18T02:15:50.622Z,100020.88
2022-09-18T02:18:46.516Z,100022.00
2022-09-18T02:21:35.732Z,100028.16
2022-09-18T02:24:27.515Z,100022.53
2022-09-18T02:27:16.559Z,100026.59
2022-09-18T02:30:06.336Z,100028.06
2022-09-18T02:32:55.694Z,100033.34
2022-09-18T02:35:47.678Z,100033.63
2022-09-18T02:38:42.405Z,100028.69
2022-09-18T02:41:46.763Z,100030.16
2022-09-18T02:44:42.528Z,100025.41
2022-09-18T02:47:44.485Z,100021.63
2022-09-18T02:50:39.192Z,100020.75
2022-09-18T02:53:30.921Z,100020.50
2022-09-18T02:56:26.829Z,100021.03
2022-09-18T02:59:20.829Z,100022.91
2022-09-18T03:02:13.494Z,99985.13
2022-09-18T03:05:02.073Z,100030.53
2022-09-18T03:07:59.434Z,100027.63
2022-09-18T03:10:48.275Z,100024.63
2022-09-18T03:13:36.615Z,100029.69
2022-09-18T03:16:23.478Z,100025.25
2022-09-18T03:19:11.868Z,100030.47
2022-09-18T03:21:58.681Z,100034.53
2022-09-18T03:24:46.903Z,100044.38
2022-09-18T03:27:35.667Z,100046.31
2022-09-18T03:30:24.059Z,100049.81
2022-09-18T03:33:10.499Z,100049.06
2022-09-18T03:35:57.311Z,100056.25
2022-09-18T03:38:45.542Z,100037.97
2022-09-18T03:41:32.537Z,100061.94
2022-09-18T03:44:19.906Z,100063.34
2022-09-18T03:47:09.666Z,100064.91
2022-09-18T03:49:56.857Z,100061.69
2022-09-18T03:52:47.776Z,100063.41
2022-09-18T03:55:57.990Z,100068.34
2022-09-18T03:59:07.585Z,100068.34
2022-09-18T04:02:33.934Z,100077.06
2022-09-18T04:05:55.817Z,100075.53
2022-09-18T04:09:01.046Z,100081.69
2022-09-18T04:11:57.631Z,100082.84
2022-09-18T04:14:44.332Z,100087.72
2022-09-18T04:17:31.077Z,100089.72
2022-09-18T04:20:19.190Z,100087.84
2022-09-18T04:23:06.846Z,100093.69
2022-09-18T04:25:54.722Z,100089.63
2022-09-18T04:28:47.221Z,100095.47
2022-09-18T04:31:35.170Z,100092.88
2022-09-18T04:34:26.272Z,100103.00
2022-09-18T04:37:14.354Z,100102.00
2022-09-18T04:40:01.208Z,100105.50
2022-09-18T04:42:50.424Z,100098.09
2022-09-18T04:45:37.356Z,100108.25
2022-09-18T04:48:24.604Z,100106.66
2022-09-18T04:51:12.942Z,100110.16
2022-09-18T04:54:10.007Z,100117.47
2022-09-18T04:56:57.821Z,100120.81
2022-09-18T04:59:44.213Z,100125.22
2022-09-18T05:02:31.029Z,100123.31
2022-09-18T05:05:17.648Z,100117.41
2022-09-18T05:08:05.070Z,100129.72
2022-09-18T05:10:52.910Z,100121.72
2022-09-18T05:13:40.219Z,100126.28
2022-09-18T05:16:34.197Z,100119.50
2022-09-18T05:19:44.544Z,100119.38
2022-09-18T05:22:38.776Z,100119.50
2022-09-18T05:25:31.171Z,100119.31
2022-09-18T05:28:19.895Z,100128.25
2022-09-18T05:31:09.496Z,100130.88
2022-09-18T05:34:01.908Z,100135.13
2022-09-18T05:36:48.632Z,100133.78
2022-09-18T05:39:35.208Z,100143.53
2022-09-18T05:42:22.570Z,100147.75
2022-09-18T05:45:12.274Z,100145.38
2022-09-18T05:48:00.078Z,100141.13
2022-09-18T05:50:48.545Z,100147.38
2022-09-18T05:53:36.570Z,100141.13
2022-09-18T05:56:29.131Z,100148.97
2022-09-18T05:59:16.071Z,100163.06
2022-09-18T06:02:08.457Z,100156.97
2022-09-18T06:05:17.875Z,100155.56
2022-09-18T06:08:06.155Z,100167.06
2022-09-18T06:10:54.803Z,100156.66
2022-09-18T06:13:41.586Z,100161.03
2022-09-18T06:16:28.768Z,100162.56
2022-09-18T06:19:24.084Z,100153.53
2022-09-18T06:22:12.153Z,100159.91
2022-09-18T06:24:58.673Z,100156.03
2022-09-18T06:27:54.701Z,100163.75
2022-09-18T06:30:41.245Z,100163.31
2022-09-18T06:33:29.354Z,100140.22
2022-09-18T06:36:18.811Z,100171.41
2022-09-18T06:39:19.435Z,100170.09
2022-09-18T06:42:09.369Z,100177.31
2022-09-18T06:45:26.033Z,100173.34
2022-09-18T06:48:12.820Z,100169.25
2022-09-18T06:51:00.417Z,100167.56
2022-09-18T06:53:53.217Z,100183.28
2022-09-18T06:56:40.112Z,100180.06
2022-09-18T06:59:29.259Z,100185.31
2022-09-18T07:02:19.390Z,100176.81
2022-09-18T07:05:27.213Z,100161.88
2022-09-18T07:08:14.410Z,100173.25
2022-09-18T07:11:03.631Z,100172.75
2022-09-18T07:13:50.136Z,100179.66
2022-09-18T07:16:37.569Z,100175.91
2022-09-18T07:19:24.552Z,100170.41
2022-09-18T07:22:11.347Z,100174.66
2022-09-18T07:25:03.138Z,100173.72
2022-09-18T07:27:51.355Z,100174.22
2022-09-18T07:30:41.395Z,100172.13
2022-09-18T07:33:27.953Z,100175.91
2022-09-18T07:36:14.702Z,100172.00
2022-09-18T07:39:01.940Z,100178.84
2022-09-18T07:41:56.625Z,100171.94
2022-09-18T07:44:44.492Z,100176.88
2022-09-18T07:47:31.432Z,100177.41
2022-09-18T07:50:24.104Z,100166.81
2022-09-18T07:53:12.232Z,100173.84
2022-09-18T07:56:01.097Z,100184.84
2022-09-18T07:58:52.364Z,100177.50
2022-09-18T08:01:45.850Z,100171.50
2022-09-18T08:04:33.114Z,100186.56
2022-09-18T08:07:31.035Z,100177.00
2022-09-18T08:10:29.017Z,100184.44
2022-09-18T08:13:32.480Z,100183.97
2022-09-18T08:16:27.435Z,100179.06
2022-09-18T08:19:28.394Z,100183.22
2022-09-18T08:22:33.497Z,100190.69
2022-09-18T08:25:21.344Z,100190.75
2022-09-18T08:28:09.495Z,100183.72
2022-09-18T08:31:03.607Z,100186.38
2022-09-18T08:33:52.298Z,100194.75
2022-09-18T08:36:41.112Z,100187.81
2022-09-18T08:39:45.340Z,100183.84
2022-09-18T08:43:15.904Z,100174.97
2022-09-18T08:46:35.786Z,100187.28
2022-09-18T08:49:30.662Z,100173.91
2022-09-18T08:52:24.855Z,100170.19
2022-09-18T08:55:27.468Z,100184.75
2022-09-18T08:58:35.923Z,100186.13
2022-09-18T09:01:29.584Z,100185.47
2022-09-18T09:04:22.587Z,100188.97
2022-09-18T09:07:33.220Z,100188.59
2022-09-18T09:10:42.387Z,100188.78
2022-09-18T09:14:11.281Z,100188.34
2022-09-18T09:17:05.608Z,100192.56
2022-09-18T09:19:55.498Z,100183.66
2022-09-18T09:22:51.162Z,100187.00
2022-09-18T09:25:46.550Z,100187.72
2022-09-18T09:28:53.926Z,100191.78
2022-09-18T09:32:10.913Z,100194.72
2022-09-18T09:35:30.338Z,100189.44
2022-09-18T09:38:35.553Z,100181.16
2022-09-18T09:41:31.612Z,100174.56
2022-09-18T09:44:34.809Z,100178.25
2022-09-18T09:47:31.309Z,100173.66
2022-09-18T09:50:42.417Z,100152.22
2022-09-18T09:53:30.085Z,100172.53
2022-09-18T09:56:24.013Z,100169.13
2022-09-18T09:59:23.224Z,100164.00
2022-09-18T10:02:37.465Z,100166.63
2022-09-18T10:05:31.547Z,100166.09
2022-09-18T10:08:25.181Z,100168.44
2022-09-18T10:11:13.904Z,100174.81
2022-09-18T10:14:11.833Z,100180.84
2022-09-18T10:17:03.088Z,100185.47
2022-09-18T10:19:50.287Z,100179.25
2022-09-18T10:22:37.648Z,100173.78
2022-09-18T10:25:39.899Z,100184.81
2022-09-18T10:28:29.530Z,100189.50
2022-09-18T10:31:19.064Z,100183.53
2022-09-18T10:34:32.517Z,100176.13
2022-09-18T10:37:39.362Z,100176.66
2022-09-18T10:40:41.455Z,100178.28
2022-09-18T10:43:29.450Z,100171.44
2022-09-18T10:46:16.393Z,100181.72
2022-09-18T10:49:24.844Z,100164.69
2022-09-18T10:52:36.254Z,100171.06
2022-09-18T10:55:53.894Z,100189.72
2022-09-18T10:58:43.034Z,100187.16
2022-09-18T11:01:31.094Z,100205.84
2022-09-18T11:04:18.711Z,100199.59
2022-09-18T11:07:08.061Z,100192.69
2022-09-18T11:09:56.208Z,100189.25
2022-09-18T11:12:53.564Z,100191.13
2022-09-18T11:15:54.297Z,100181.28
2022-09-18T11:18:41.793Z,100175.69
2022-09-18T11:21:29.984Z,100170.34
2022-09-18T11:24:25.274Z,100162.75
2022-09-18T11:27:21.404Z,100159.09
2022-09-18T11:30:16.384Z,100156.19
2022-09-18T11:33:23.330Z,100160.81
2022-09-18T11:36:12.264Z,100150.31
2022-09-18T11:39:02.542Z,100136.31
2022-09-18T11:41:55.686Z,100149.75
2022-09-18T11:44:43.480Z,100148.81
2022-09-18T11:47:37.884Z,100150.91
2022-09-18T11:50:27.524Z,100148.84
2022-09-18T11:53:18.098Z,100147.13
2022-09-18T11:56:09.914Z,100156.66
2022-09-18T11:59:05.331Z,100143.84
2022-09-18T12:01:58.061Z,100135.44
2022-09-18T12:04:49.532Z,100139.47
2022-09-18T12:07:44.360Z,100127.97
2022-09-18T12:10:46.161Z,100123.84
2022-09-18T12:13:48.148Z,100112.75
2022-09-18T12:16:46.143Z,100116.47
2022-09-18T12:19:39.191Z,100112.94
2022-09-18T12:22:38.460Z,100118.03
2022-09-18T12:25:34.567Z,100119.28
2022-09-18T12:28:39.776Z,100134.19
2022-09-18T12:31:37.764Z,100126.69
2022-09-18T12:34:37.932Z,100126.38
2022-09-18T12:37:40.177Z,100123.81
2022-09-18T12:41:00.914Z,100124.38
2022-09-18T12:44:17.650Z,100118.50
2022-09-18T12:47:19.100Z,100115.94
2022-09-18T12:50:51.881Z,100119.53
2022-09-18T12:54:06.482Z,100095.75
2022-09-18T12:57:14.846Z,100105.28
2022-09-18T13:00:20.327Z,100106.56
2022-09-18T13:03:30.031Z,100094.94
2022-09-18T13:06:53.749Z,100093.06
2022-09-18T13:09:51.573Z,100092.47
2022-09-18T13:12:42.934Z,100096.09
2022-09-18T13:15:34.247Z,100092.22
2022-09-18T13:18:33.007Z,100095.31
2022-09-18T13:21:28.709Z,100092.16
2022-09-18T13:24:18.388Z,100094.03
2022-09-18T13:27:10.490Z,100098.19
2022-09-18T13:29:59.564Z,100095.00
2022-09-18T13:32:46.091Z,100089.16
2022-09-18T13:35:35.440Z,100104.94
2022-09-18T13:38:26.284Z,100117.81
2022-09-18T13:41:14.862Z,100125.88
2022-09-18T13:44:03.952Z,100130.16
2022-09-18T13:46:52.185Z,100126.91
2022-09-18T13:49:48.425Z,100124.00
2022-09-18T13:52:56.321Z,100126.75
2022-09-18T13:55:53.227Z,100123.97
2022-09-18T13:58:50.935Z,100117.97
2022-09-18T14:02:04.407Z,100130.84
2022-09-18T14:05:26.795Z,100126.19
2022-09-18T14:08:37.741Z,100119.22
2022-09-18T14:11:26.387Z,100102.91
2022-09-18T14:14:14.779Z,100109.72
2022-09-18T14:17:13.290Z,100108.06
2022-09-18T14:20:08.109Z,100100.41
2022-09-18T14:22:54.921Z,100104.16
2022-09-18T14:25:47.233Z,100099.06
2022-09-18T14:28:36.747Z,100092.75
2022-09-18T14:31:29.561Z,100100.88
2022-09-18T14:34:22.509Z,100081.09
2022-09-18T14:37:25.562Z,100104.47
2022-09-18T14:40:20.194Z,100099.13
2022-09-18T14:43:16.547Z,100089.91
2022-09-18T14:46:05.043Z,100090.28
2022-09-18T14:48:51.878Z,100093.06
2022-09-18T14:52:03.281Z,100100.25
2022-09-18T14:54:52.642Z,100096.81
2022-09-18T14:57:44.793Z,100092.28
2022-09-18T15:00:33.592Z,100089.09
2022-09-18T15:03:26.538Z,100094.00
2022-09-18T15:06:18.921Z,100098.22
2022-09-18T15:09:07.686Z,100087.94
2022-09-18T15:12:03.101Z,100080.94
2022-09-18T15:14:50.258Z,100090.16
2022-09-18T15:17:37.030Z,100094.78
2022-09-18T15:20:26.333Z,100084.00
2022-09-18T15:23:20.918Z,100080.50
2022-09-18T15:26:13.818Z,100088.31
2022-09-18T15:29:03.660Z,100089.94
2022-09-18T15:31:51.136Z,100084.25
2022-09-18T15:34:42.014Z,100084.38
2022-09-18T15:37:30.334Z,100087.19
2022-09-18T15:40:19.829Z,100084.84
2022-09-18T15:43:08.479Z,100079.53
2022-09-18T15:46:03.347Z,100085.94
2022-09-18T15:48:51.041Z,100083.34
2022-09-18T15:51:38.709Z,100079.44
2022-09-18T15:54:28.801Z,100077.94
2022-09-18T15:57:15.957Z,100083.09
2022-09-18T16:00:04.673Z,100075.13
2022-09-18T16:03:01.474Z,100079.72
2022-09-18T16:05:54.470Z,100077.44
2022-09-18T16:08:41.260Z,100074.78
2022-09-18T16:11:40.655Z,100077.31
2022-09-18T16:14:50.133Z,100082.72
2022-09-18T16:17:55.345Z,100077.91
2022-09-18T16:20:43.695Z,100049.81
2022-09-18T16:23:34.023Z,100078.91
2022-09-18T16:26:28.045Z,100078.41
2022-09-18T16:29:20.650Z,100076.25
2022-09-18T16:32:11.829Z,100083.22
2022-09-18T16:34:58.924Z,100078.69
2022-09-18T16:37:45.654Z,100077.69
2022-09-18T16:40:32.502Z,100075.97
2022-09-18T16:43:19.751Z,100070.97
2022-09-18T16:46:08.057Z,100083.41
2022-09-18T16:48:55.922Z,100082.34
2022-09-18T16:51:42.580Z,100087.00
2022-09-18T16:54:29.383Z,100076.94
2022-09-18T16:57:20.668Z,100086.34
2022-09-18T17:00:10.192Z,100081.72
2022-09-18T17:03:00.573Z,100087.38
2022-09-18T17:05:47.533Z,100083.53
2022-09-18T17:08:34.309Z,100089.94
2022-09-18T17:11:21.098Z,100083.91
2022-09-18T17:14:08.087Z,100097.06
2022-09-18T17:16:54.983Z,100097.59
2022-09-18T17:19:42.973Z,100100.94
2022-09-18T17:22:30.905Z,100097.84
2022-09-18T17:25:18.217Z,100103.88
2022-09-18T17:28:05.122Z,100109.81
2022-09-18T17:30:54.369Z,100108.38
2022-09-18T17:33:43.271Z,100105.97
2022-09-18T17:36:31.143Z,100108.09
2022-09-18T17:39:18.101Z,100108.84
2022-09-18T17:42:05.233Z,100104.47
2022-09-18T17:44:51.988Z,100115.84
2022-09-18T17:47:38.514Z,100121.94
2022-09-18T17:50:25.658Z,100101.09
2022-09-18T17:53:13.471Z,100116.16
2022-09-18T17:56:00.565Z,100127.63
2022-09-18T17:58:47.986Z,100119.13
2022-09-18T18:01:38.154Z,100127.66
2022-09-18T18:04:24.925Z,100128.59
2022-09-18T18:07:11.733Z,100124.78
2022-09-18T18:09:59.901Z,100136.28
2022-09-18T18:12:46.646Z,100138.31
2022-09-18T18:15:33.263Z,100134.78
2022-09-18T18:18:20.634Z,100136.00
2022-09-18T18:21:08.041Z,100142.16
2022-09-18T18:23:56.431Z,100123.66
2022-09-18T18:26:45.219Z,100121.44
2022-09-18T18:29:32.421Z,100141.81
2022-09-18T18:32:19.257Z,100144.13
2022-09-18T18:35:06.316Z,100144.81
2022-09-18T18:37:52.787Z,100148.50
2022-09-18T18:40:40.499Z,100152.53
2022-09-18T18:43:29.016Z,100150.00
2022-09-18T18:46:15.751Z,100158.09
2022-09-18T18:49:03.677Z,100161.06
2022-09-18T18:51:51.944Z,100150.00
2022-09-18T18:54:39.874Z,100148.22
2022-09-18T18:57:26.710Z,100152.97
2022-09-18T19:00:15.352Z,100147.25
2022-09-18T19:03:02.487Z,100143.69
2022-09-18T19:05:49.395Z,100149.84
2022-09-18T19:08:36.044Z,100148.28
2022-09-18T19:11:23.822Z,100150.19
2022-09-18T19:14:14.217Z,100148.50
2022-09-18T19:17:02.308Z,100152.28
2022-09-18T19:19:49.678Z,100153.22
2022-09-18T19:22:36.445Z,100154.13
2022-09-18T19:25:23.975Z,100157.78
2022-09-18T19:28:10.597Z,100150.78
2022-09-18T19:30:57.296Z,100153.66
2022-09-18T19:33:46.455Z,100157.94
2022-09-18T19:36:34.181Z,100157.91
2022-09-18T19:39:25.850Z,100159.94
2022-09-18T19:42:17.228Z,100162.84
2022-09-18T19:45:06.174Z,100161.25
2022-09-18T19:48:01.596Z,100163.56
2022-09-18T19:50:49.995Z,100170.03
2022-09-18T19:53:36.658Z,100165.75
2022-09-18T19:56:42.033Z,100164.00
2022-09-18T19:59:29.948Z,100167.13
2022-09-18T20:02:18.422Z,100162.59
2022-09-18T20:05:06.024Z,100162.06
2022-09-18T20:07:54.470Z,100172.78
2022-09-18T20:10:41.644Z,100164.00
2022-09-18T20:13:28.371Z,100159.63
2022-09-18T20:16:15.277Z,100173.75
2022-09-18T20:19:02.388Z,100173.78
2022-09-18T20:21:49.277Z,100167.69
2022-09-18T20:24:37.541Z,100168.66
2022-09-18T20:27:25.540Z,100174.16
2022-09-18T20:30:13.460Z,100174.09
2022-09-18T20:33:02.101Z,100175.22
2022-09-18T20:35:55.944Z,100170.16
2022-09-18T20:38:43.750Z,100176.25
2022-09-18T20:41:32.289Z,100173.69
2022-09-18T20:44:19.748Z,100173.69
2022-09-18T20:47:07.208Z,100170.19
2022-09-18T20:49:54.406Z,100174.75
2022-09-18T20:52:43.152Z,100169.56
2022-09-18T20:55:29.953Z,100167.09
2022-09-18T20:58:18.373Z,100144.78
2022-09-18T21:01:09.404Z,100169.78
2022-09-18T21:04:01.127Z,100170.94
2022-09-18T21:06:51.711Z,100175.50
2022-09-18T21:09:38.212Z,100166.72
2022-09-18T21:12:25.827Z,100172.09
2022-09-18T21:15:15.208Z,100163.47
2022-09-18T21:18:01.800Z,100158.94
2022-09-18T21:20:48.659Z,100167.88
2022-09-18T21:23:52.852Z,100168.78
2022-09-18T21:26:41.563Z,100168.03
2022-09-18T21:29:29.958Z,100158.44
2022-09-18T21:32:18.154Z,100163.00
2022-09-18T21:35:06.509Z,100161.25
2022-09-18T21:37:55.231Z,100164.09
2022-09-18T21:40:41.803Z,100161.72
2022-09-18T21:43:29.026Z,100156.56
2022-09-18T21:46:19.435Z,100155.78
2022-09-18T21:49:09.479Z,100160.28
2022-09-18T21:51:58.520Z,100156.75
2022-09-18T21:54:49.563Z,100153.34
2022-09-18T21:57:36.963Z,100159.47
2022-09-18T22:00:23.445Z,100161.28
2022-09-18T22:03:10.237Z,100161.25
2022-09-18T22:06:00.724Z,100168.34
2022-09-18T22:08:48.959Z,100171.94
2022-09-18T22:11:37.061Z,100177.25
2022-09-18T22:14:25.991Z,100174.66
2022-09-18T22:17:12.431Z,100171.09
2022-09-18T22:19:59.319Z,100180.78
2022-09-18T22:22:47.587Z,100179.94
2022-09-18T22:25:34.731Z,100181.53
2022-09-18T22:28:21.728Z,100172.75
2022-09-18T22:31:08.704Z,100182.38
2022-09-18T22:33:57.607Z,100182.38
2022-09-18T22:36:44.944Z,100180.69
2022-09-18T22:39:33.109Z,100171.88
2022-09-18T22:42:20.160Z,100180.78
2022-09-18T22:45:08.536Z,100179.88
2022-09-18T22:47:54.903Z,100186.06
2022-09-18T22:50:43.508Z,100183.34
2022-09-18T22:53:30.043Z,100183.44
2022-09-18T22:56:18.909Z,100195.56
2022-09-18T22:59:06.289Z,100191.06
2022-09-18T23:01:56.458Z,100193.75
2022-09-18T23:04:43.124Z,100191.03
2022-09-18T23:07:29.900Z,100193.47
2022-09-18T23:10:16.680Z,100198.56
2022-09-18T23:13:04.703Z,100196.59
2022-09-18T23:15:51.107Z,100196.47
2022-09-18T23:18:38.295Z,100195.31
2022-09-18T23:21:26.962Z,100196.91
2022-09-18T23:24:16.090Z,100190.75
2022-09-18T23:27:02.713Z,100197.59
2022-09-18T23:29:51.383Z,100201.06
2022-09-18T23:32:38.023Z,100200.16
2022-09-18T23:35:24.822Z,100190.41
2022-09-18T23:38:11.537Z,100203.47
2022-09-18T23:41:00.795Z,100201.63
2022-09-18T23:43:49.503Z,100198.22
2022-09-18T23:46:37.721Z,100199.53
2022-09-18T23:49:24.231Z,100199.00
2022-09-18T23:52:10.623Z,100201.13
2022-09-18T23:54:57.376Z,100197.56
2022-09-18T23:57:44.202Z,100197.56
